sensor_id;sensor_type;location;lat;lon;timestamp;P1;durP1;ratioP1;P2;durP2;ratioP2
49728;SDS011;66333;49.798;10.968;2023-02-11T00:01:18;19.83;;;13.40;;
49728;SDS011;66333;49.798;10.968;2023-02-11T00:03:48;20.30;;;13.17;;
49728;SDS011;66333;49.798;10.968;2023-02-11T00:06:22;21.27;;;13.03;;
49728;SDS011;66333;49.798;10.968;2023-02-11T00:08:50;19.67;;;12.83;;
49728;SDS011;66333;49.798;10.968;2023-02-11T00:11:19;18.93;;;12.43;;
49728;SDS011;66333;49.798;10.968;2023-02-11T00:13:47;19.60;;;13.07;;
49728;SDS011;66333;49.798;10.968;2023-02-11T00:16:17;19.30;;;12.80;;
49728;SDS011;66333;49.798;10.968;2023-02-11T00:18:45;20.27;;;13.00;;
49728;SDS011;66333;49.798;10.968;2023-02-11T00:21:14;20.90;;;13.63;;
49728;SDS011;66333;49.798;10.968;2023-02-11T00:23:45;21.20;;;12.57;;
49728;SDS011;66333;49.798;10.968;2023-02-11T00:26:12;21.20;;;12.90;;
49728;SDS011;66333;49.798;10.968;2023-02-11T00:28:40;20.40;;;13.13;;
49728;SDS011;66333;49.798;10.968;2023-02-11T00:31:07;20.73;;;13.07;;
49728;SDS011;66333;49.798;10.968;2023-02-11T00:33:35;20.80;;;13.27;;
49728;SDS011;66333;49.798;10.968;2023-02-11T00:36:05;20.97;;;13.23;;
49728;SDS011;66333;49.798;10.968;2023-02-11T00:38:35;18.77;;;12.40;;
49728;SDS011;66333;49.798;10.968;2023-02-11T00:41:05;24.03;;;13.67;;
49728;SDS011;66333;49.798;10.968;2023-02-11T00:43:34;21.27;;;13.73;;
49728;SDS011;66333;49.798;10.968;2023-02-11T00:46:03;24.50;;;14.40;;
49728;SDS011;66333;49.798;10.968;2023-02-11T00:48:31;21.37;;;13.53;;
49728;SDS011;66333;49.798;10.968;2023-02-11T00:50:59;21.23;;;13.30;;
49728;SDS011;66333;49.798;10.968;2023-02-11T00:53:29;22.20;;;13.70;;
49728;SDS011;66333;49.798;10.968;2023-02-11T00:55:57;20.67;;;13.27;;
49728;SDS011;66333;49.798;10.968;2023-02-11T00:58:27;20.80;;;13.43;;
49728;SDS011;66333;49.798;10.968;2023-02-11T01:00:55;20.07;;;12.77;;
49728;SDS011;66333;49.798;10.968;2023-02-11T01:03:25;20.60;;;13.03;;
49728;SDS011;66333;49.798;10.968;2023-02-11T01:05:51;20.30;;;13.70;;
49728;SDS011;66333;49.798;10.968;2023-02-11T01:08:19;22.77;;;14.17;;
49728;SDS011;66333;49.798;10.968;2023-02-11T01:10:52;21.43;;;13.63;;
49728;SDS011;66333;49.798;10.968;2023-02-11T01:13:21;21.63;;;14.02;;
49728;SDS011;66333;49.798;10.968;2023-02-11T01:15:51;22.67;;;13.57;;
49728;SDS011;66333;49.798;10.968;2023-02-11T01:18:18;22.67;;;14.13;;
49728;SDS011;66333;49.798;10.968;2023-02-11T01:20:46;21.90;;;14.13;;
49728;SDS011;66333;49.798;10.968;2023-02-11T01:23:16;20.00;;;13.33;;
49728;SDS011;66333;49.798;10.968;2023-02-11T01:25:43;20.87;;;13.13;;
49728;SDS011;66333;49.798;10.968;2023-02-11T01:28:15;20.20;;;13.17;;
49728;SDS011;66333;49.798;10.968;2023-02-11T01:30:46;22.60;;;13.80;;
49728;SDS011;66333;49.798;10.968;2023-02-11T01:33:27;20.57;;;13.07;;
49728;SDS011;66333;49.798;10.968;2023-02-11T01:36:07;21.90;;;13.90;;
49728;SDS011;66333;49.798;10.968;2023-02-11T01:38:35;20.37;;;13.10;;
49728;SDS011;66333;49.798;10.968;2023-02-11T01:41:04;20.70;;;13.70;;
49728;SDS011;66333;49.798;10.968;2023-02-11T01:43:34;21.20;;;13.87;;
49728;SDS011;66333;49.798;10.968;2023-02-11T01:46:06;20.57;;;13.60;;
49728;SDS011;66333;49.798;10.968;2023-02-11T01:48:45;21.53;;;13.47;;
49728;SDS011;66333;49.798;10.968;2023-02-11T01:51:15;23.30;;;13.23;;
49728;SDS011;66333;49.798;10.968;2023-02-11T01:53:48;20.53;;;13.17;;
49728;SDS011;66333;49.798;10.968;2023-02-11T01:56:35;21.37;;;13.10;;
49728;SDS011;66333;49.798;10.968;2023-02-11T01:59:37;22.20;;;13.67;;
49728;SDS011;66333;49.798;10.968;2023-02-11T02:02:11;20.70;;;12.90;;
49728;SDS011;66333;49.798;10.968;2023-02-11T02:04:46;21.13;;;13.90;;
49728;SDS011;66333;49.798;10.968;2023-02-11T02:07:21;21.13;;;13.33;;
49728;SDS011;66333;49.798;10.968;2023-02-11T02:09:57;19.07;;;13.00;;
49728;SDS011;66333;49.798;10.968;2023-02-11T02:12:29;22.25;;;13.35;;
49728;SDS011;66333;49.798;10.968;2023-02-11T02:17:52;19.30;;;12.47;;
49728;SDS011;66333;49.798;10.968;2023-02-11T02:23:33;19.27;;;12.93;;
49728;SDS011;66333;49.798;10.968;2023-02-11T02:29:29;21.47;;;12.90;;
49728;SDS011;66333;49.798;10.968;2023-02-11T02:35:18;20.07;;;12.80;;
49728;SDS011;66333;49.798;10.968;2023-02-11T02:37:55;23.30;;;13.87;;
49728;SDS011;66333;49.798;10.968;2023-02-11T02:40:26;21.97;;;13.87;;
49728;SDS011;66333;49.798;10.968;2023-02-11T02:43:00;19.65;;;12.60;;
49728;SDS011;66333;49.798;10.968;2023-02-11T02:45:28;20.93;;;13.00;;
49728;SDS011;66333;49.798;10.968;2023-02-11T02:47:57;22.23;;;13.17;;
49728;SDS011;66333;49.798;10.968;2023-02-11T02:50:30;19.70;;;12.90;;
49728;SDS011;66333;49.798;10.968;2023-02-11T02:53:06;20.77;;;13.07;;
49728;SDS011;66333;49.798;10.968;2023-02-11T02:55:49;20.33;;;12.97;;
49728;SDS011;66333;49.798;10.968;2023-02-11T02:58:36;18.73;;;12.07;;
49728;SDS011;66333;49.798;10.968;2023-02-11T03:01:34;22.47;;;13.23;;
49728;SDS011;66333;49.798;10.968;2023-02-11T03:04:10;21.30;;;13.07;;
49728;SDS011;66333;49.798;10.968;2023-02-11T03:06:48;19.80;;;12.40;;
49728;SDS011;66333;49.798;10.968;2023-02-11T03:09:20;18.55;;;12.60;;
49728;SDS011;66333;49.798;10.968;2023-02-11T03:11:56;19.37;;;12.80;;
49728;SDS011;66333;49.798;10.968;2023-02-11T03:14:25;20.57;;;12.97;;
49728;SDS011;66333;49.798;10.968;2023-02-11T03:16:54;19.37;;;12.63;;
49728;SDS011;66333;49.798;10.968;2023-02-11T03:19:25;20.23;;;12.73;;
49728;SDS011;66333;49.798;10.968;2023-02-11T03:22:06;19.02;;;12.88;;
49728;SDS011;66333;49.798;10.968;2023-02-11T03:24:37;19.47;;;12.83;;
49728;SDS011;66333;49.798;10.968;2023-02-11T03:27:08;20.97;;;13.10;;
49728;SDS011;66333;49.798;10.968;2023-02-11T03:32:14;20.07;;;12.53;;
49728;SDS011;66333;49.798;10.968;2023-02-11T03:34:48;18.08;;;11.73;;
49728;SDS011;66333;49.798;10.968;2023-02-11T03:37:23;20.63;;;13.00;;
49728;SDS011;66333;49.798;10.968;2023-02-11T03:39:56;19.25;;;12.00;;
49728;SDS011;66333;49.798;10.968;2023-02-11T03:42:30;19.60;;;12.52;;
49728;SDS011;66333;49.798;10.968;2023-02-11T03:45:03;19.00;;;12.33;;
49728;SDS011;66333;49.798;10.968;2023-02-11T03:47:35;19.57;;;12.13;;
49728;SDS011;66333;49.798;10.968;2023-02-11T03:50:08;19.63;;;12.43;;
49728;SDS011;66333;49.798;10.968;2023-02-11T03:52:40;22.90;;;13.20;;
49728;SDS011;66333;49.798;10.968;2023-02-11T03:55:12;19.17;;;12.17;;
49728;SDS011;66333;49.798;10.968;2023-02-11T03:57:43;19.40;;;13.50;;
49728;SDS011;66333;49.798;10.968;2023-02-11T04:00:12;18.97;;;11.73;;
49728;SDS011;66333;49.798;10.968;2023-02-11T04:02:40;20.77;;;12.93;;
49728;SDS011;66333;49.798;10.968;2023-02-11T04:05:08;19.10;;;12.10;;
49728;SDS011;66333;49.798;10.968;2023-02-11T04:07:40;18.13;;;12.73;;
49728;SDS011;66333;49.798;10.968;2023-02-11T04:10:08;18.83;;;12.33;;
49728;SDS011;66333;49.798;10.968;2023-02-11T04:12:37;19.70;;;12.87;;
49728;SDS011;66333;49.798;10.968;2023-02-11T04:15:07;19.80;;;12.70;;
49728;SDS011;66333;49.798;10.968;2023-02-11T04:17:36;18.80;;;11.83;;
49728;SDS011;66333;49.798;10.968;2023-02-11T04:20:04;19.63;;;12.60;;
49728;SDS011;66333;49.798;10.968;2023-02-11T04:22:32;19.37;;;11.77;;
49728;SDS011;66333;49.798;10.968;2023-02-11T04:25:05;18.53;;;12.23;;
49728;SDS011;66333;49.798;10.968;2023-02-11T04:27:34;18.63;;;12.20;;
49728;SDS011;66333;49.798;10.968;2023-02-11T04:30:05;18.93;;;11.87;;
49728;SDS011;66333;49.798;10.968;2023-02-11T04:32:36;19.73;;;12.27;;
49728;SDS011;66333;49.798;10.968;2023-02-11T04:35:04;17.93;;;11.47;;
49728;SDS011;66333;49.798;10.968;2023-02-11T04:37:32;19.70;;;11.60;;
49728;SDS011;66333;49.798;10.968;2023-02-11T04:40:00;18.63;;;11.33;;
49728;SDS011;66333;49.798;10.968;2023-02-11T04:42:33;20.45;;;12.75;;
49728;SDS011;66333;49.798;10.968;2023-02-11T04:45:02;17.30;;;11.00;;
49728;SDS011;66333;49.798;10.968;2023-02-11T04:47:29;18.63;;;12.00;;
49728;SDS011;66333;49.798;10.968;2023-02-11T04:49:55;17.80;;;11.37;;
49728;SDS011;66333;49.798;10.968;2023-02-11T04:52:23;17.67;;;11.40;;
49728;SDS011;66333;49.798;10.968;2023-02-11T04:54:53;18.80;;;12.17;;
49728;SDS011;66333;49.798;10.968;2023-02-11T04:57:22;20.13;;;11.67;;
49728;SDS011;66333;49.798;10.968;2023-02-11T04:59:49;17.97;;;11.00;;
49728;SDS011;66333;49.798;10.968;2023-02-11T05:02:17;18.33;;;11.63;;
49728;SDS011;66333;49.798;10.968;2023-02-11T05:04:46;17.80;;;11.63;;
49728;SDS011;66333;49.798;10.968;2023-02-11T05:07:15;18.53;;;11.43;;
49728;SDS011;66333;49.798;10.968;2023-02-11T05:09:43;19.27;;;11.33;;
49728;SDS011;66333;49.798;10.968;2023-02-11T05:12:12;18.00;;;10.73;;
49728;SDS011;66333;49.798;10.968;2023-02-11T05:14:43;18.57;;;11.93;;
49728;SDS011;66333;49.798;10.968;2023-02-11T05:17:10;19.70;;;11.60;;
49728;SDS011;66333;49.798;10.968;2023-02-11T05:19:37;18.87;;;11.63;;
49728;SDS011;66333;49.798;10.968;2023-02-11T05:22:05;17.43;;;11.63;;
49728;SDS011;66333;49.798;10.968;2023-02-11T05:24:34;17.70;;;10.87;;
49728;SDS011;66333;49.798;10.968;2023-02-11T05:27:02;15.23;;;10.73;;
49728;SDS011;66333;49.798;10.968;2023-02-11T05:29:31;18.40;;;11.27;;
49728;SDS011;66333;49.798;10.968;2023-02-11T05:31:59;17.47;;;11.30;;
49728;SDS011;66333;49.798;10.968;2023-02-11T05:34:28;18.13;;;11.13;;
49728;SDS011;66333;49.798;10.968;2023-02-11T05:36:58;18.83;;;11.90;;
49728;SDS011;66333;49.798;10.968;2023-02-11T05:39:24;18.57;;;10.83;;
49728;SDS011;66333;49.798;10.968;2023-02-11T05:41:51;16.13;;;10.57;;
49728;SDS011;66333;49.798;10.968;2023-02-11T05:44:19;18.37;;;11.97;;
49728;SDS011;66333;49.798;10.968;2023-02-11T05:46:47;19.13;;;11.23;;
49728;SDS011;66333;49.798;10.968;2023-02-11T05:49:22;17.10;;;11.20;;
49728;SDS011;66333;49.798;10.968;2023-02-11T05:51:48;17.13;;;11.27;;
49728;SDS011;66333;49.798;10.968;2023-02-11T05:54:17;19.07;;;11.13;;
49728;SDS011;66333;49.798;10.968;2023-02-11T05:56:45;17.63;;;11.63;;
49728;SDS011;66333;49.798;10.968;2023-02-11T05:59:15;17.70;;;11.10;;
49728;SDS011;66333;49.798;10.968;2023-02-11T06:01:43;17.40;;;10.77;;
49728;SDS011;66333;49.798;10.968;2023-02-11T06:04:12;16.30;;;10.87;;
49728;SDS011;66333;49.798;10.968;2023-02-11T06:06:41;17.40;;;11.07;;
49728;SDS011;66333;49.798;10.968;2023-02-11T06:09:09;17.60;;;11.13;;
49728;SDS011;66333;49.798;10.968;2023-02-11T06:11:37;17.43;;;11.03;;
49728;SDS011;66333;49.798;10.968;2023-02-11T06:14:04;17.80;;;11.30;;
49728;SDS011;66333;49.798;10.968;2023-02-11T06:16:35;16.67;;;11.17;;
49728;SDS011;66333;49.798;10.968;2023-02-11T06:19:03;18.67;;;11.40;;
49728;SDS011;66333;49.798;10.968;2023-02-11T06:21:30;18.80;;;11.03;;
49728;SDS011;66333;49.798;10.968;2023-02-11T06:24:03;16.40;;;10.77;;
49728;SDS011;66333;49.798;10.968;2023-02-11T06:26:33;16.47;;;11.03;;
49728;SDS011;66333;49.798;10.968;2023-02-11T06:29:00;18.23;;;11.30;;
49728;SDS011;66333;49.798;10.968;2023-02-11T06:31:29;25.20;;;13.10;;
49728;SDS011;66333;49.798;10.968;2023-02-11T06:33:57;21.80;;;13.27;;
49728;SDS011;66333;49.798;10.968;2023-02-11T06:36:28;19.93;;;13.07;;
49728;SDS011;66333;49.798;10.968;2023-02-11T06:38:54;22.80;;;12.80;;
49728;SDS011;66333;49.798;10.968;2023-02-11T06:41:26;25.43;;;14.50;;
49728;SDS011;66333;49.798;10.968;2023-02-11T06:44:01;27.97;;;15.00;;
49728;SDS011;66333;49.798;10.968;2023-02-11T06:46:29;27.03;;;14.97;;
49728;SDS011;66333;49.798;10.968;2023-02-11T06:48:59;24.23;;;13.33;;
49728;SDS011;66333;49.798;10.968;2023-02-11T06:51:27;22.83;;;13.23;;
49728;SDS011;66333;49.798;10.968;2023-02-11T06:53:57;28.50;;;14.73;;
49728;SDS011;66333;49.798;10.968;2023-02-11T06:56:26;24.23;;;13.73;;
49728;SDS011;66333;49.798;10.968;2023-02-11T06:58:55;25.33;;;13.83;;
49728;SDS011;66333;49.798;10.968;2023-02-11T07:01:24;22.53;;;13.53;;
49728;SDS011;66333;49.798;10.968;2023-02-11T07:03:53;22.43;;;13.73;;
49728;SDS011;66333;49.798;10.968;2023-02-11T07:06:24;22.03;;;12.43;;
49728;SDS011;66333;49.798;10.968;2023-02-11T07:08:53;21.83;;;13.13;;
49728;SDS011;66333;49.798;10.968;2023-02-11T07:11:22;24.67;;;13.27;;
49728;SDS011;66333;49.798;10.968;2023-02-11T07:13:58;23.70;;;13.23;;
49728;SDS011;66333;49.798;10.968;2023-02-11T07:16:28;21.07;;;13.00;;
49728;SDS011;66333;49.798;10.968;2023-02-11T07:18:56;21.47;;;13.20;;
49728;SDS011;66333;49.798;10.968;2023-02-11T07:21:24;19.33;;;11.97;;
49728;SDS011;66333;49.798;10.968;2023-02-11T07:23:52;21.63;;;13.07;;
49728;SDS011;66333;49.798;10.968;2023-02-11T07:26:19;21.00;;;12.17;;
49728;SDS011;66333;49.798;10.968;2023-02-11T07:28:52;19.50;;;12.73;;
49728;SDS011;66333;49.798;10.968;2023-02-11T07:31:19;19.43;;;12.97;;
49728;SDS011;66333;49.798;10.968;2023-02-11T07:33:47;22.13;;;12.60;;
49728;SDS011;66333;49.798;10.968;2023-02-11T07:36:16;20.70;;;12.30;;
49728;SDS011;66333;49.798;10.968;2023-02-11T07:38:42;19.93;;;12.27;;
49728;SDS011;66333;49.798;10.968;2023-02-11T07:41:11;20.90;;;12.40;;
49728;SDS011;66333;49.798;10.968;2023-02-11T07:43:40;20.00;;;12.13;;
49728;SDS011;66333;49.798;10.968;2023-02-11T07:46:12;21.37;;;12.07;;
49728;SDS011;66333;49.798;10.968;2023-02-11T07:48:41;18.97;;;11.63;;
49728;SDS011;66333;49.798;10.968;2023-02-11T07:51:10;17.53;;;11.40;;
49728;SDS011;66333;49.798;10.968;2023-02-11T07:53:39;21.70;;;12.60;;
49728;SDS011;66333;49.798;10.968;2023-02-11T07:56:07;20.27;;;12.00;;
49728;SDS011;66333;49.798;10.968;2023-02-11T07:58:36;20.17;;;12.03;;
49728;SDS011;66333;49.798;10.968;2023-02-11T08:01:03;18.13;;;11.47;;
49728;SDS011;66333;49.798;10.968;2023-02-11T08:03:33;19.17;;;11.80;;
49728;SDS011;66333;49.798;10.968;2023-02-11T08:06:02;19.17;;;11.40;;
49728;SDS011;66333;49.798;10.968;2023-02-11T08:08:30;19.90;;;11.53;;
49728;SDS011;66333;49.798;10.968;2023-02-11T08:10:58;19.20;;;12.07;;
49728;SDS011;66333;49.798;10.968;2023-02-11T08:13:25;18.17;;;11.67;;
49728;SDS011;66333;49.798;10.968;2023-02-11T08:15:56;18.27;;;11.57;;
49728;SDS011;66333;49.798;10.968;2023-02-11T08:18:23;19.33;;;11.07;;
49728;SDS011;66333;49.798;10.968;2023-02-11T08:20:56;17.77;;;10.90;;
49728;SDS011;66333;49.798;10.968;2023-02-11T08:23:29;16.47;;;10.63;;
49728;SDS011;66333;49.798;10.968;2023-02-11T08:25:59;16.63;;;10.43;;
49728;SDS011;66333;49.798;10.968;2023-02-11T08:28:27;21.23;;;11.47;;
49728;SDS011;66333;49.798;10.968;2023-02-11T08:30:55;19.70;;;10.73;;
49728;SDS011;66333;49.798;10.968;2023-02-11T08:33:23;17.30;;;10.57;;
49728;SDS011;66333;49.798;10.968;2023-02-11T08:36:06;17.07;;;10.73;;
49728;SDS011;66333;49.798;10.968;2023-02-11T08:38:34;18.90;;;10.33;;
49728;SDS011;66333;49.798;10.968;2023-02-11T08:41:04;16.23;;;9.83;;
49728;SDS011;66333;49.798;10.968;2023-02-11T08:43:31;16.20;;;9.77;;
49728;SDS011;66333;49.798;10.968;2023-02-11T08:45:57;15.80;;;9.70;;
49728;SDS011;66333;49.798;10.968;2023-02-11T08:48:25;17.83;;;10.00;;
49728;SDS011;66333;49.798;10.968;2023-02-11T08:50:55;15.90;;;10.07;;
49728;SDS011;66333;49.798;10.968;2023-02-11T08:53:21;17.00;;;10.53;;
49728;SDS011;66333;49.798;10.968;2023-02-11T08:55:48;15.23;;;9.23;;
49728;SDS011;66333;49.798;10.968;2023-02-11T08:58:17;16.10;;;10.00;;
49728;SDS011;66333;49.798;10.968;2023-02-11T09:00:45;16.27;;;10.77;;
49728;SDS011;66333;49.798;10.968;2023-02-11T09:03:14;17.57;;;10.33;;
49728;SDS011;66333;49.798;10.968;2023-02-11T09:05:45;16.60;;;9.63;;
49728;SDS011;66333;49.798;10.968;2023-02-11T09:08:20;15.57;;;10.00;;
49728;SDS011;66333;49.798;10.968;2023-02-11T09:10:50;16.50;;;9.30;;
49728;SDS011;66333;49.798;10.968;2023-02-11T09:13:17;15.37;;;9.50;;
49728;SDS011;66333;49.798;10.968;2023-02-11T09:15:44;16.20;;;10.13;;
49728;SDS011;66333;49.798;10.968;2023-02-11T09:18:12;15.57;;;9.93;;
49728;SDS011;66333;49.798;10.968;2023-02-11T09:20:40;17.13;;;9.53;;
49728;SDS011;66333;49.798;10.968;2023-02-11T09:23:08;15.40;;;9.93;;
49728;SDS011;66333;49.798;10.968;2023-02-11T09:25:39;15.13;;;9.50;;
49728;SDS011;66333;49.798;10.968;2023-02-11T09:28:08;14.90;;;9.27;;
49728;SDS011;66333;49.798;10.968;2023-02-11T09:30:37;13.00;;;8.70;;
49728;SDS011;66333;49.798;10.968;2023-02-11T09:33:06;17.50;;;9.93;;
49728;SDS011;66333;49.798;10.968;2023-02-11T09:35:33;16.80;;;9.33;;
49728;SDS011;66333;49.798;10.968;2023-02-11T09:38:02;14.40;;;9.10;;
49728;SDS011;66333;49.798;10.968;2023-02-11T09:40:32;14.97;;;9.23;;
49728;SDS011;66333;49.798;10.968;2023-02-11T09:43:03;14.77;;;9.50;;
49728;SDS011;66333;49.798;10.968;2023-02-11T09:45:35;12.80;;;8.23;;
49728;SDS011;66333;49.798;10.968;2023-02-11T09:48:03;15.27;;;9.07;;
49728;SDS011;66333;49.798;10.968;2023-02-11T09:50:38;12.90;;;8.90;;
49728;SDS011;66333;49.798;10.968;2023-02-11T09:53:09;14.47;;;8.83;;
49728;SDS011;66333;49.798;10.968;2023-02-11T09:55:41;17.03;;;9.40;;
49728;SDS011;66333;49.798;10.968;2023-02-11T09:58:13;15.97;;;8.40;;
49728;SDS011;66333;49.798;10.968;2023-02-11T10:00:45;14.27;;;9.13;;
49728;SDS011;66333;49.798;10.968;2023-02-11T10:03:25;15.17;;;8.93;;
49728;SDS011;66333;49.798;10.968;2023-02-11T10:06:28;11.93;;;8.07;;
49728;SDS011;66333;49.798;10.968;2023-02-11T10:11:49;12.67;;;8.20;;
49728;SDS011;66333;49.798;10.968;2023-02-11T10:14:41;13.07;;;8.03;;
49728;SDS011;66333;49.798;10.968;2023-02-11T10:17:31;13.40;;;8.37;;
49728;SDS011;66333;49.798;10.968;2023-02-11T10:20:17;13.40;;;8.03;;
49728;SDS011;66333;49.798;10.968;2023-02-11T10:22:56;14.77;;;9.03;;
49728;SDS011;66333;49.798;10.968;2023-02-11T10:25:33;13.03;;;8.30;;
49728;SDS011;66333;49.798;10.968;2023-02-11T10:28:09;13.53;;;8.57;;
49728;SDS011;66333;49.798;10.968;2023-02-11T10:30:48;13.40;;;8.00;;
49728;SDS011;66333;49.798;10.968;2023-02-11T10:33:26;13.17;;;8.50;;
49728;SDS011;66333;49.798;10.968;2023-02-11T10:35:58;15.27;;;8.63;;
49728;SDS011;66333;49.798;10.968;2023-02-11T10:38:25;13.03;;;7.83;;
49728;SDS011;66333;49.798;10.968;2023-02-11T10:40:54;15.20;;;8.30;;
49728;SDS011;66333;49.798;10.968;2023-02-11T10:43:24;13.67;;;8.23;;
49728;SDS011;66333;49.798;10.968;2023-02-11T10:45:58;12.60;;;7.77;;
49728;SDS011;66333;49.798;10.968;2023-02-11T10:48:37;14.60;;;8.10;;
49728;SDS011;66333;49.798;10.968;2023-02-11T10:51:13;14.43;;;8.27;;
49728;SDS011;66333;49.798;10.968;2023-02-11T10:53:43;13.57;;;8.27;;
49728;SDS011;66333;49.798;10.968;2023-02-11T10:56:13;12.83;;;7.97;;
49728;SDS011;66333;49.798;10.968;2023-02-11T10:58:53;15.17;;;8.07;;
49728;SDS011;66333;49.798;10.968;2023-02-11T11:01:37;13.83;;;7.73;;
49728;SDS011;66333;49.798;10.968;2023-02-11T11:04:18;13.03;;;7.40;;
49728;SDS011;66333;49.798;10.968;2023-02-11T11:07:13;12.60;;;7.40;;
49728;SDS011;66333;49.798;10.968;2023-02-11T11:09:44;12.33;;;7.60;;
49728;SDS011;66333;49.798;10.968;2023-02-11T11:12:26;12.57;;;7.63;;
49728;SDS011;66333;49.798;10.968;2023-02-11T11:15:16;11.90;;;7.33;;
49728;SDS011;66333;49.798;10.968;2023-02-11T11:17:48;13.60;;;7.50;;
49728;SDS011;66333;49.798;10.968;2023-02-11T11:20:24;12.00;;;7.70;;
49728;SDS011;66333;49.798;10.968;2023-02-11T11:23:06;10.70;;;7.23;;
49728;SDS011;66333;49.798;10.968;2023-02-11T11:25:59;13.90;;;8.00;;
49728;SDS011;66333;49.798;10.968;2023-02-11T11:28:40;11.97;;;7.47;;
49728;SDS011;66333;49.798;10.968;2023-02-11T11:31:17;12.97;;;7.57;;
49728;SDS011;66333;49.798;10.968;2023-02-11T11:33:50;12.80;;;7.37;;
49728;SDS011;66333;49.798;10.968;2023-02-11T11:36:20;12.53;;;7.77;;
49728;SDS011;66333;49.798;10.968;2023-02-11T11:38:55;12.67;;;7.43;;
49728;SDS011;66333;49.798;10.968;2023-02-11T11:41:27;12.37;;;7.53;;
49728;SDS011;66333;49.798;10.968;2023-02-11T11:43:59;13.07;;;7.50;;
49728;SDS011;66333;49.798;10.968;2023-02-11T11:46:32;12.10;;;7.03;;
49728;SDS011;66333;49.798;10.968;2023-02-11T11:49:09;14.00;;;7.67;;
49728;SDS011;66333;49.798;10.968;2023-02-11T11:51:44;12.00;;;7.00;;
49728;SDS011;66333;49.798;10.968;2023-02-11T11:54:18;17.77;;;9.73;;
49728;SDS011;66333;49.798;10.968;2023-02-11T11:56:50;21.90;;;11.50;;
49728;SDS011;66333;49.798;10.968;2023-02-11T11:59:22;24.83;;;14.43;;
49728;SDS011;66333;49.798;10.968;2023-02-11T12:02:01;28.27;;;15.03;;
49728;SDS011;66333;49.798;10.968;2023-02-11T12:07:49;23.87;;;13.57;;
49728;SDS011;66333;49.798;10.968;2023-02-11T12:13:22;23.93;;;12.87;;
49728;SDS011;66333;49.798;10.968;2023-02-11T12:16:03;27.10;;;14.53;;
49728;SDS011;66333;49.798;10.968;2023-02-11T12:21:44;23.73;;;13.47;;
49728;SDS011;66333;49.798;10.968;2023-02-11T12:24:32;21.77;;;13.27;;
49728;SDS011;66333;49.798;10.968;2023-02-11T12:27:12;23.13;;;13.00;;
49728;SDS011;66333;49.798;10.968;2023-02-11T12:29:49;25.10;;;14.20;;
49728;SDS011;66333;49.798;10.968;2023-02-11T12:32:30;22.40;;;13.23;;
49728;SDS011;66333;49.798;10.968;2023-02-11T12:35:10;22.23;;;13.53;;
49728;SDS011;66333;49.798;10.968;2023-02-11T12:37:57;23.07;;;13.70;;
49728;SDS011;66333;49.798;10.968;2023-02-11T12:40:44;22.77;;;13.30;;
49728;SDS011;66333;49.798;10.968;2023-02-11T12:43:22;21.13;;;13.17;;
49728;SDS011;66333;49.798;10.968;2023-02-11T12:49:13;20.13;;;12.00;;
49728;SDS011;66333;49.798;10.968;2023-02-11T12:51:57;22.27;;;12.40;;
49728;SDS011;66333;49.798;10.968;2023-02-11T12:55:00;21.30;;;12.47;;
49728;SDS011;66333;49.798;10.968;2023-02-11T12:57:33;21.70;;;12.80;;
49728;SDS011;66333;49.798;10.968;2023-02-11T13:00:05;21.10;;;12.70;;
49728;SDS011;66333;49.798;10.968;2023-02-11T13:02:41;22.77;;;12.93;;
49728;SDS011;66333;49.798;10.968;2023-02-11T13:05:18;18.60;;;11.23;;
49728;SDS011;66333;49.798;10.968;2023-02-11T13:07:51;23.97;;;12.93;;
49728;SDS011;66333;49.798;10.968;2023-02-11T13:10:25;21.23;;;12.70;;
49728;SDS011;66333;49.798;10.968;2023-02-11T13:13:02;20.50;;;11.80;;
49728;SDS011;66333;49.798;10.968;2023-02-11T13:15:53;17.15;;;10.98;;
49728;SDS011;66333;49.798;10.968;2023-02-11T13:21:20;18.40;;;11.70;;
49728;SDS011;66333;49.798;10.968;2023-02-11T13:23:58;20.70;;;11.90;;
49728;SDS011;66333;49.798;10.968;2023-02-11T13:26:38;20.03;;;12.03;;
49728;SDS011;66333;49.798;10.968;2023-02-11T13:29:22;20.83;;;11.57;;
49728;SDS011;66333;49.798;10.968;2023-02-11T13:32:04;17.93;;;11.30;;
49728;SDS011;66333;49.798;10.968;2023-02-11T13:37:22;17.53;;;10.97;;
49728;SDS011;66333;49.798;10.968;2023-02-11T13:39:57;21.33;;;11.37;;
49728;SDS011;66333;49.798;10.968;2023-02-11T13:42:26;17.27;;;10.80;;
49728;SDS011;66333;49.798;10.968;2023-02-11T13:45:07;19.83;;;11.60;;
49728;SDS011;66333;49.798;10.968;2023-02-11T13:47:44;17.70;;;10.63;;
49728;SDS011;66333;49.798;10.968;2023-02-11T13:50:19;18.47;;;11.07;;
49728;SDS011;66333;49.798;10.968;2023-02-11T13:52:55;18.87;;;11.23;;
49728;SDS011;66333;49.798;10.968;2023-02-11T13:55:24;19.63;;;10.90;;
49728;SDS011;66333;49.798;10.968;2023-02-11T14:00:44;18.60;;;12.07;;
49728;SDS011;66333;49.798;10.968;2023-02-11T14:03:25;19.73;;;11.40;;
49728;SDS011;66333;49.798;10.968;2023-02-11T14:06:17;17.93;;;10.90;;
49728;SDS011;66333;49.798;10.968;2023-02-11T14:15:20;18.83;;;10.83;;
49728;SDS011;66333;49.798;10.968;2023-02-11T14:17:58;16.70;;;9.57;;
49728;SDS011;66333;49.798;10.968;2023-02-11T14:20:32;20.33;;;10.63;;
49728;SDS011;66333;49.798;10.968;2023-02-11T14:23:06;18.30;;;10.43;;
49728;SDS011;66333;49.798;10.968;2023-02-11T14:25:55;18.70;;;10.50;;
49728;SDS011;66333;49.798;10.968;2023-02-11T14:28:49;18.30;;;10.03;;
49728;SDS011;66333;49.798;10.968;2023-02-11T14:31:20;17.73;;;9.97;;
49728;SDS011;66333;49.798;10.968;2023-02-11T14:33:54;16.57;;;9.93;;
49728;SDS011;66333;49.798;10.968;2023-02-11T14:39:40;17.03;;;9.77;;
49728;SDS011;66333;49.798;10.968;2023-02-11T14:42:22;15.40;;;9.40;;
49728;SDS011;66333;49.798;10.968;2023-02-11T14:45:03;16.07;;;9.27;;
49728;SDS011;66333;49.798;10.968;2023-02-11T14:47:35;15.65;;;8.90;;
49728;SDS011;66333;49.798;10.968;2023-02-11T14:50:13;16.70;;;9.67;;
49728;SDS011;66333;49.798;10.968;2023-02-11T14:52:52;16.80;;;9.13;;
49728;SDS011;66333;49.798;10.968;2023-02-11T14:55:32;16.53;;;9.30;;
49728;SDS011;66333;49.798;10.968;2023-02-11T14:58:10;16.20;;;9.63;;
49728;SDS011;66333;49.798;10.968;2023-02-11T15:00:46;15.20;;;9.47;;
49728;SDS011;66333;49.798;10.968;2023-02-11T15:03:30;15.33;;;9.40;;
49728;SDS011;66333;49.798;10.968;2023-02-11T15:06:05;15.67;;;9.60;;
49728;SDS011;66333;49.798;10.968;2023-02-11T15:08:41;15.43;;;9.17;;
49728;SDS011;66333;49.798;10.968;2023-02-11T15:11:11;15.27;;;9.00;;
49728;SDS011;66333;49.798;10.968;2023-02-11T15:13:44;15.50;;;9.20;;
49728;SDS011;66333;49.798;10.968;2023-02-11T15:16:15;13.73;;;8.93;;
49728;SDS011;66333;49.798;10.968;2023-02-11T15:18:47;16.27;;;9.67;;
49728;SDS011;66333;49.798;10.968;2023-02-11T15:21:20;14.70;;;9.03;;
49728;SDS011;66333;49.798;10.968;2023-02-11T15:23:56;14.48;;;8.32;;
49728;SDS011;66333;49.798;10.968;2023-02-11T15:26:24;14.63;;;8.40;;
49728;SDS011;66333;49.798;10.968;2023-02-11T15:28:51;14.00;;;8.63;;
49728;SDS011;66333;49.798;10.968;2023-02-11T15:31:22;14.77;;;8.30;;